createdAt,value
2022-08-26T00:01:57.177Z,92.86
2022-08-26T00:07:00.696Z,93.08
2022-08-26T00:12:05.849Z,93.19
2022-08-26T00:17:09.780Z,93.37
2022-08-26T00:22:14.214Z,93.50
2022-08-26T00:27:24.998Z,94.13
2022-08-26T00:32:29.231Z,94.48
2022-08-26T00:37:33.539Z,94.47
2022-08-26T00:42:36.876Z,94.41
2022-08-26T00:47:46.433Z,94.33
2022-08-26T00:52:53.665Z,94.30
2022-08-26T00:57:57.253Z,94.31
2022-08-26T01:03:05.273Z,94.35
2022-08-26T01:08:11.656Z,94.31
2022-08-26T01:13:16.300Z,94.44
2022-08-26T01:18:25.024Z,94.86
2022-08-26T01:23:32.854Z,95.07
2022-08-26T01:28:38.489Z,95.11
2022-08-26T01:33:52.819Z,95.10
2022-08-26T01:38:57.737Z,95.11
2022-08-26T01:44:02.919Z,95.12
2022-08-26T01:49:08.599Z,95.42
2022-08-26T01:54:13.854Z,95.63
2022-08-26T01:59:20.464Z,95.75
2022-08-26T02:04:31.850Z,95.85
2022-08-26T02:09:41.579Z,95.88
2022-08-26T02:14:51.275Z,95.91
2022-08-26T02:19:54.943Z,95.92
2022-08-26T02:25:02.297Z,95.86
2022-08-26T02:30:17.952Z,95.80
2022-08-26T02:35:23.664Z,95.78
2022-08-26T02:40:32.927Z,95.77
2022-08-26T02:45:40.784Z,95.81
2022-08-26T02:50:44.507Z,95.78
2022-08-26T02:55:49.864Z,95.74
2022-08-26T03:00:53.937Z,95.82
2022-08-26T03:05:58.633Z,96.13
2022-08-26T03:11:01.887Z,96.44
2022-08-26T03:16:05.738Z,96.64
2022-08-26T03:21:12.075Z,96.72
2022-08-26T03:26:17.919Z,96.81
2022-08-26T03:31:21.499Z,96.91
2022-08-26T03:36:28.133Z,96.98
2022-08-26T03:41:35.327Z,96.97
2022-08-26T03:46:39.632Z,96.96
2022-08-26T03:51:43.280Z,96.96
2022-08-26T03:56:48.228Z,96.95
2022-08-26T04:01:51.593Z,97.01
2022-08-26T04:06:59.679Z,97.11
2022-08-26T04:12:04.132Z,97.23
2022-08-26T04:17:08.138Z,97.30
2022-08-26T04:22:12.082Z,97.38
2022-08-26T04:27:16.388Z,97.48
2022-08-26T04:32:20.109Z,97.56
2022-08-26T04:37:23.419Z,97.55
2022-08-26T04:42:27.762Z,97.52
2022-08-26T04:47:32.454Z,97.41
2022-08-26T04:52:36.967Z,97.12
2022-08-26T04:57:41.582Z,96.68
2022-08-26T05:02:44.786Z,95.82
2022-08-26T05:07:48.206Z,94.63
2022-08-26T05:12:53.354Z,92.60
2022-08-26T05:17:59.328Z,91.46
2022-08-26T05:23:04.943Z,91.08
2022-08-26T05:28:09.763Z,89.67
2022-08-26T05:33:13.458Z,83.27
2022-08-26T05:38:19.258Z,75.32
2022-08-26T05:43:22.546Z,68.61
2022-08-26T05:48:25.848Z,63.69
2022-08-26T05:53:29.158Z,59.26
2022-08-26T05:58:34.516Z,56.22
2022-08-26T06:03:40.593Z,52.92
2022-08-26T06:08:45.133Z,50.78
2022-08-26T06:13:48.456Z,47.02
2022-08-26T06:18:53.599Z,45.66
2022-08-26T06:24:19.050Z,44.66
2022-08-26T06:29:25.542Z,46.99
2022-08-26T06:34:30.719Z,47.73
2022-08-26T06:39:34.328Z,48.95
2022-08-26T06:44:37.906Z,49.94
2022-08-26T06:49:44.593Z,48.23
2022-08-26T06:54:47.908Z,45.08
2022-08-26T06:59:51.463Z,42.56
2022-08-26T07:04:54.730Z,40.26
2022-08-26T07:10:00.606Z,40.39
2022-08-26T07:15:06.560Z,38.61
2022-08-26T07:20:12.557Z,37.27
2022-08-26T07:25:16.790Z,36.96
2022-08-26T07:30:22.695Z,36.48
2022-08-26T07:35:27.079Z,36.61
2022-08-26T07:40:30.548Z,35.88
2022-08-26T07:45:34.223Z,34.43
2022-08-26T07:50:50.345Z,34.95
2022-08-26T07:55:54.771Z,37.36
2022-08-26T08:00:59.449Z,39.27
2022-08-26T08:06:04.157Z,41.71
2022-08-26T08:11:07.673Z,40.55
2022-08-26T08:16:13.343Z,41.06
2022-08-26T08:21:22.046Z,42.15
2022-08-26T08:26:28.054Z,43.30
2022-08-26T08:31:55.709Z,43.26
2022-08-26T08:36:57.630Z,42.94
2022-08-26T08:42:00.920Z,42.79
2022-08-26T08:47:34.248Z,38.63
2022-08-26T08:52:40.060Z,35.74
2022-08-26T08:58:02.504Z,34.25
2022-08-26T09:03:34.856Z,34.49
2022-08-26T09:08:38.374Z,36.21
2022-08-26T09:13:47.896Z,36.90
2022-08-26T09:18:51.139Z,35.63
2022-08-26T09:23:56.988Z,34.52
2022-08-26T09:29:03.856Z,33.31
2022-08-26T09:34:07.521Z,34.12
2022-08-26T09:39:31.823Z,35.45
2022-08-26T09:44:51.725Z,36.12
2022-08-26T09:50:15.106Z,36.95
2022-08-26T09:55:24.403Z,38.50
2022-08-26T10:00:40.773Z,39.08
2022-08-26T10:05:59.213Z,39.40
2022-08-26T10:11:28.776Z,39.18
2022-08-26T10:17:01.639Z,39.35
2022-08-26T10:22:18.292Z,39.76
2022-08-26T10:28:00.822Z,40.80
2022-08-26T10:33:08.837Z,40.36
2022-08-26T10:38:17.274Z,40.54
2022-08-26T10:43:44.002Z,41.33
2022-08-26T10:48:56.710Z,41.63
2022-08-26T10:54:37.864Z,42.03
2022-08-26T11:00:24.491Z,42.47
2022-08-26T11:05:31.181Z,43.25
2022-08-26T11:10:43.301Z,42.64
2022-08-26T11:15:58.796Z,43.23
2022-08-26T11:21:45.547Z,43.68
2022-08-26T11:26:55.314Z,44.49
2022-08-26T11:32:00.090Z,44.53
2022-08-26T11:37:16.357Z,44.84
2022-08-26T11:42:38.603Z,44.77
2022-08-26T11:47:43.040Z,42.72
2022-08-26T11:53:06.059Z,42.26
2022-08-26T11:58:12.803Z,41.04
2022-08-26T12:03:27.071Z,41.00
2022-08-26T12:08:34.644Z,39.86
2022-08-26T12:13:39.531Z,38.65
2022-08-26T12:18:44.973Z,39.03
2022-08-26T12:23:52.964Z,39.08
2022-08-26T12:29:12.597Z,39.60
2022-08-26T12:34:24.315Z,39.04
2022-08-26T12:39:34.589Z,39.21
2022-08-26T12:45:02.065Z,39.00
2022-08-26T12:50:18.688Z,39.36
2022-08-26T12:55:35.804Z,39.29
2022-08-26T13:00:46.044Z,39.51
2022-08-26T13:05:49.923Z,38.38
2022-08-26T13:11:30.916Z,38.61
2022-08-26T13:16:35.565Z,38.87
2022-08-26T13:21:48.510Z,38.47
2022-08-26T13:26:52.081Z,37.93
2022-08-26T13:31:56.487Z,37.04
2022-08-26T13:37:01.194Z,36.86
2022-08-26T13:42:04.911Z,37.27
2022-08-26T13:47:08.735Z,37.87
2022-08-26T13:52:12.353Z,37.23
2022-08-26T13:57:16.279Z,36.48
2022-08-26T14:02:20.429Z,37.36
2022-08-26T14:07:24.080Z,37.59
2022-08-26T14:12:27.747Z,39.21
2022-08-26T14:17:33.004Z,40.34
2022-08-26T14:23:03.443Z,42.13
2022-08-26T14:28:08.708Z,42.28
2022-08-26T14:33:15.105Z,42.57
2022-08-26T14:38:18.861Z,42.86
2022-08-26T14:43:22.163Z,42.99
2022-08-26T14:48:26.051Z,42.93
2022-08-26T14:53:47.789Z,43.04
2022-08-26T14:58:51.100Z,41.65
2022-08-26T15:03:54.617Z,40.70
2022-08-26T15:08:58.849Z,40.24
2022-08-26T15:14:02.861Z,40.08
2022-08-26T15:19:07.010Z,40.16
2022-08-26T15:24:10.524Z,39.60
2022-08-26T15:29:15.268Z,39.89
2022-08-26T15:34:18.784Z,40.54
2022-08-26T15:39:22.098Z,41.26
2022-08-26T15:44:26.739Z,41.37
2022-08-26T15:49:30.148Z,41.74
2022-08-26T15:54:34.538Z,42.16
2022-08-26T15:59:37.897Z,42.37
2022-08-26T16:04:41.518Z,42.93
2022-08-26T16:09:54.036Z,43.31
2022-08-26T16:14:58.486Z,43.44
2022-08-26T16:20:01.798Z,43.47
2022-08-26T16:25:08.426Z,43.86
2022-08-26T16:30:13.620Z,43.93
2022-08-26T16:35:17.562Z,44.37
2022-08-26T16:40:21.123Z,46.50
2022-08-26T16:45:25.817Z,50.15
2022-08-26T16:50:30.582Z,51.04
2022-08-26T16:55:34.497Z,51.89
2022-08-26T17:00:39.135Z,53.47
2022-08-26T17:05:42.863Z,54.73
2022-08-26T17:10:46.269Z,56.09
2022-08-26T17:15:54.407Z,56.80
2022-08-26T17:21:08.557Z,57.82
2022-08-26T17:26:13.649Z,58.62
2022-08-26T17:31:18.414Z,59.70
2022-08-26T17:36:27.437Z,60.21
2022-08-26T17:41:33.449Z,61.45
2022-08-26T17:46:38.528Z,61.82
2022-08-26T17:51:43.089Z,62.98
2022-08-26T17:56:47.322Z,64.15
2022-08-26T18:01:54.499Z,64.85
2022-08-26T18:07:00.100Z,65.26
2022-08-26T18:12:05.162Z,65.22
2022-08-26T18:17:09.896Z,64.91
2022-08-26T18:22:15.713Z,66.08
2022-08-26T18:27:20.585Z,67.28
2022-08-26T18:32:25.034Z,68.99
2022-08-26T18:37:31.591Z,69.58
2022-08-26T18:42:36.554Z,70.11
2022-08-26T18:47:40.187Z,69.76
2022-08-26T18:52:44.511Z,70.69
2022-08-26T18:57:48.135Z,71.34
2022-08-26T19:02:56.032Z,70.83
2022-08-26T19:08:03.408Z,70.71
2022-08-26T19:13:08.875Z,70.86
2022-08-26T19:18:15.518Z,71.26
2022-08-26T19:23:31.371Z,70.94
2022-08-26T19:28:35.946Z,70.38
2022-08-26T19:33:42.126Z,69.87
2022-08-26T19:38:46.631Z,69.71
2022-08-26T19:43:50.434Z,69.77
2022-08-26T19:48:55.871Z,69.19
2022-08-26T19:54:01.503Z,69.00
2022-08-26T19:59:05.248Z,69.58
2022-08-26T20:04:09.161Z,71.12
2022-08-26T20:09:12.981Z,70.84
2022-08-26T20:14:19.152Z,70.72
2022-08-26T20:19:46.027Z,71.64
2022-08-26T20:24:49.952Z,72.35
2022-08-26T20:29:57.975Z,73.37
2022-08-26T20:35:01.796Z,72.99
2022-08-26T20:40:09.260Z,74.07
2022-08-26T20:45:12.921Z,74.45
2022-08-26T20:50:16.644Z,74.34
2022-08-26T20:55:21.517Z,75.10
2022-08-26T21:00:27.007Z,77.19
2022-08-26T21:05:32.106Z,77.94
2022-08-26T21:10:35.729Z,78.53
2022-08-26T21:15:39.345Z,78.98
2022-08-26T21:20:42.960Z,78.62
2022-08-26T21:25:47.293Z,78.53
2022-08-26T21:30:51.552Z,78.04
2022-08-26T21:35:56.089Z,77.96
2022-08-26T21:41:01.871Z,78.37
2022-08-26T21:46:11.946Z,79.20
2022-08-26T21:51:17.875Z,79.12
2022-08-26T21:56:22.655Z,79.31
2022-08-26T22:01:29.793Z,78.96
2022-08-26T22:06:35.309Z,79.47
2022-08-26T22:11:39.009Z,79.79
2022-08-26T22:16:45.730Z,79.95
2022-08-26T22:21:56.023Z,80.00
2022-08-26T22:26:59.486Z,80.14
2022-08-26T22:32:03.236Z,80.40
2022-08-26T22:37:06.720Z,80.97
2022-08-26T22:42:10.133Z,81.13
2022-08-26T22:47:13.350Z,81.76
2022-08-26T22:52:16.755Z,82.25
2022-08-26T22:57:21.008Z,82.44
2022-08-26T23:02:24.708Z,82.23
2022-08-26T23:07:28.019Z,81.82
2022-08-26T23:12:31.775Z,81.35
2022-08-26T23:17:36.893Z,81.15
2022-08-26T23:22:40.921Z,81.69
2022-08-26T23:27:44.337Z,82.32
2022-08-26T23:32:47.748Z,82.90
2022-08-26T23:37:52.908Z,83.01
2022-08-26T23:42:58.773Z,82.88
2022-08-26T23:48:03.222Z,83.35
2022-08-26T23:53:06.725Z,83.66
2022-08-26T23:58:10.391Z,83.89
